Valier, Illinois
Current Conditions -  °F | °C
As of 3:47 PM on Saturday 25 Oct 2014 (Local Time) from KMWA Reporting Station
Clear Clear  
Wind Chill: 81°   Ceiling: Unl
Heat Index: 81°   Visibility: 20mi
Dew Point: 57°   Wind: 8mph
Humidity: 45%   Direction: 310°NW
Pressure: 30"   Gusts: NA
Location:  38.02°N, 89.04°W
Report Text: KMWA 252047Z 31007KT 20SM SKC 27/14 A3000
Loading
Personal Weather Stations






























Interactive Weather Map
Tropical Storm Tracking
New forecast layout! Learn more

10-Day Weather Forecast

Advertisements
Track Severe Weather on mobile